Details for Delta Airlines at RJAA




Go Back


Latest METAR
Local Time

RJAA 252200Z 03008KT 9999 FEW030 SCT200 BKN/// 20/15 Q1009 NOSIG

26/05/2018, 07:29:26

Description
Results
Delta Airlines Logo
Number of Pilots based at RJAA
0 Pilots Based here
Number of Delta Airlines Flights Departed from RJAA
0 Flights Departed
Number of Delta Airlines Flights Arrived at RJAA
0 Flights Arrived
Number of Delta Airlines Schedules Departing from RJAA
14 Schedules
Number of Delta Airlines Schedules Arriving at RJAA
13 Schedules
Number of Delta Airlines Schedules Departing from RJAA availible today
10 Schedules Today
Number of Delta Airlines Schedules Arriving at RJAA availible today
9 Schedules Today
Average Landing Rate at RJAA
-87 fpm
Delta Airlines Average Landing Rate at RJAA
0 fpm
Total Fuel Purchased at RJAA by Delta Airlines
0.00 kgs / 0.00 lbs

Pilots Based at RJAA


Pilot ID
Pilot Name
Pilot Rank
No. of Flights
No. of Flying Hours
There are no pilots assigned to this hub!   Will you be the first?
Content